createdAt,value
2018-06-19T00:00:00.333Z,16.20
2018-06-19T00:02:30.486Z,16.20
2018-06-19T00:05:00.102Z,16.30
2018-06-19T00:07:29.536Z,16.30
2018-06-19T00:09:58.724Z,16.30
2018-06-19T00:12:28.497Z,16.20
2018-06-19T00:14:59.101Z,16.20
2018-06-19T00:17:28.266Z,16.20
2018-06-19T00:19:57.914Z,16.10
2018-06-19T00:22:27.039Z,16.10
2018-06-19T00:24:56.183Z,16.10
2018-06-19T00:27:26.759Z,16.10
2018-06-19T00:29:56.561Z,16.10
2018-06-19T00:32:26.630Z,16.10
2018-06-19T00:34:56.304Z,16.10
2018-06-19T00:37:24.973Z,16.00
2018-06-19T00:39:53.574Z,15.90
2018-06-19T00:42:22.168Z,15.80
2018-06-19T00:44:51.010Z,15.70
2018-06-19T00:47:19.847Z,15.70
2018-06-19T00:49:48.973Z,15.70
2018-06-19T00:52:17.629Z,15.70
2018-06-19T00:54:46.224Z,15.80
2018-06-19T00:57:15.057Z,15.80
2018-06-19T00:59:43.648Z,15.90
2018-06-19T01:02:12.248Z,16.00
2018-06-19T01:04:41.354Z,16.00
2018-06-19T01:07:09.985Z,16.00
2018-06-19T01:09:38.577Z,16.00
2018-06-19T01:12:07.205Z,16.00
2018-06-19T01:14:36.111Z,15.80
2018-06-19T01:17:04.878Z,15.70
2018-06-19T01:19:33.513Z,15.70
2018-06-19T01:22:02.143Z,15.60
2018-06-19T01:24:30.897Z,15.40
2018-06-19T01:26:59.484Z,15.30
2018-06-19T01:29:28.579Z,15.20
2018-06-19T01:31:57.411Z,15.10
2018-06-19T01:34:26.511Z,15.00
2018-06-19T01:36:55.124Z,14.80
2018-06-19T01:39:24.448Z,14.70
2018-06-19T01:41:53.053Z,14.60
2018-06-19T01:44:21.991Z,14.40
2018-06-19T01:46:51.060Z,14.30
2018-06-19T01:49:19.904Z,14.20
2018-06-19T01:51:49.007Z,14.20
2018-06-19T01:54:18.095Z,14.10
2018-06-19T01:56:46.685Z,14.00
2018-06-19T01:59:16.331Z,14.00
2018-06-19T02:01:45.185Z,13.90
2018-06-19T02:04:13.972Z,14.00
2018-06-19T02:06:42.796Z,14.10
2018-06-19T02:09:11.408Z,14.10
2018-06-19T02:11:40.233Z,14.20
2018-06-19T02:14:09.081Z,14.20
2018-06-19T02:16:37.912Z,14.30
2018-06-19T02:19:06.511Z,14.30
2018-06-19T02:21:35.652Z,14.30
2018-06-19T02:24:04.480Z,14.30
2018-06-19T02:26:33.167Z,14.30
2018-06-19T02:29:01.996Z,14.30
2018-06-19T02:31:30.844Z,14.20
2018-06-19T02:33:59.757Z,14.10
2018-06-19T02:36:28.365Z,14.10
2018-06-19T02:38:56.962Z,14.00
2018-06-19T02:41:25.795Z,13.90
2018-06-19T02:43:54.429Z,13.80
2018-06-19T02:46:23.513Z,13.80
2018-06-19T02:51:20.420Z,13.70
2018-06-19T02:53:49.006Z,13.60
2018-06-19T02:56:17.858Z,13.50
2018-06-19T02:58:46.449Z,13.50
2018-06-19T03:01:15.308Z,13.30
2018-06-19T03:03:43.885Z,13.40
2018-06-19T03:06:12.567Z,13.30
2018-06-19T03:08:41.150Z,13.30
2018-06-19T03:11:10.024Z,13.30
2018-06-19T03:13:38.623Z,13.20
2018-06-19T03:16:07.760Z,13.10
2018-06-19T03:18:36.350Z,13.10
2018-06-19T03:21:04.984Z,13.10
2018-06-19T03:23:33.596Z,13.00
2018-06-19T03:26:02.653Z,13.00
2018-06-19T03:28:31.356Z,13.00
2018-06-19T03:31:00.257Z,12.90
2018-06-19T03:33:28.908Z,12.90
2018-06-19T03:35:57.911Z,12.90
2018-06-19T03:38:26.483Z,12.80
2018-06-19T03:40:55.096Z,12.80
2018-06-19T03:43:23.721Z,12.80
2018-06-19T03:45:52.616Z,12.80
2018-06-19T03:48:21.209Z,12.80
2018-06-19T03:50:50.129Z,12.80
2018-06-19T03:53:18.983Z,12.80
2018-06-19T03:55:47.626Z,12.80
2018-06-19T03:58:16.232Z,12.90
2018-06-19T04:00:45.080Z,12.90
2018-06-19T04:03:13.972Z,12.90
2018-06-19T04:05:43.653Z,12.90
2018-06-19T04:08:12.517Z,12.90
2018-06-19T04:10:41.153Z,12.90
2018-06-19T04:13:09.760Z,12.90
2018-06-19T04:15:38.367Z,12.90
2018-06-19T04:18:07.292Z,12.90
2018-06-19T04:20:36.193Z,12.90
2018-06-19T04:23:05.283Z,13.00
2018-06-19T04:25:33.874Z,13.00
2018-06-19T04:28:02.788Z,13.00
2018-06-19T04:30:31.844Z,13.10
2018-06-19T04:33:00.669Z,13.30
2018-06-19T04:35:30.350Z,13.40
2018-06-19T04:38:00.333Z,13.60
2018-06-19T04:40:29.205Z,14.00
2018-06-19T04:42:59.406Z,14.20
2018-06-19T04:45:28.301Z,14.40
2018-06-19T04:47:57.780Z,14.50
2018-06-19T04:50:26.640Z,14.70
2018-06-19T04:52:55.492Z,14.90
2018-06-19T04:55:24.499Z,15.10
2018-06-19T04:57:53.400Z,15.10
2018-06-19T05:00:22.241Z,15.20
2018-06-19T05:02:50.819Z,15.30
2018-06-19T05:05:20.067Z,15.40
2018-06-19T05:07:48.734Z,15.50
2018-06-19T05:10:17.345Z,15.40
2018-06-19T05:12:45.994Z,15.40
2018-06-19T05:15:14.812Z,15.30
2018-06-19T05:17:43.418Z,15.40
2018-06-19T05:20:12.048Z,15.60
2018-06-19T05:22:40.642Z,15.70
2018-06-19T05:25:09.227Z,15.90
2018-06-19T05:27:38.103Z,15.90
2018-06-19T05:30:06.761Z,16.00
2018-06-19T05:32:36.100Z,16.10
2018-06-19T05:35:04.875Z,16.00
2018-06-19T05:37:33.926Z,16.00
2018-06-19T05:40:02.513Z,16.10
2018-06-19T05:42:31.389Z,16.20
2018-06-19T05:45:00.271Z,16.20
2018-06-19T05:47:28.851Z,16.30
2018-06-19T05:49:57.909Z,16.50
2018-06-19T05:52:26.548Z,16.60
2018-06-19T05:54:55.404Z,16.70
2018-06-19T05:57:23.979Z,16.70
2018-06-19T05:59:52.841Z,16.90
2018-06-19T06:02:21.667Z,16.90
2018-06-19T06:04:50.779Z,17.00
2018-06-19T06:07:20.445Z,17.10
2018-06-19T06:09:49.697Z,17.20
2018-06-19T06:12:18.596Z,17.40
2018-06-19T06:14:47.758Z,17.50
2018-06-19T06:17:16.417Z,17.60
2018-06-19T06:19:45.500Z,17.70
2018-06-19T06:22:14.328Z,17.60
2018-06-19T06:24:42.988Z,17.50
2018-06-19T06:27:11.558Z,17.60
2018-06-19T06:29:40.383Z,17.70
2018-06-19T06:32:09.586Z,17.70
2018-06-19T06:34:38.642Z,17.70
2018-06-19T06:37:07.532Z,17.60
2018-06-19T06:39:36.568Z,17.50
2018-06-19T06:42:05.395Z,17.60
2018-06-19T06:44:34.300Z,17.90
2018-06-19T06:47:02.880Z,17.70
2018-06-19T06:49:31.724Z,17.70
2018-06-19T06:52:00.492Z,17.70
2018-06-19T06:54:29.092Z,17.60
2018-06-19T06:57:00.584Z,17.70
2018-06-19T06:59:30.076Z,17.90
2018-06-19T07:01:58.688Z,18.00
2018-06-19T07:04:27.593Z,18.10
2018-06-19T07:06:56.623Z,18.10
2018-06-19T07:09:25.205Z,18.20
2018-06-19T07:11:53.925Z,18.40
2018-06-19T07:14:22.734Z,18.40
2018-06-19T07:16:51.424Z,18.60
2018-06-19T07:19:20.717Z,18.80
2018-06-19T07:21:49.860Z,18.60
2018-06-19T07:24:18.492Z,18.60
2018-06-19T07:26:47.307Z,18.60
2018-06-19T07:29:15.914Z,18.50
2018-06-19T07:31:44.503Z,18.40
2018-06-19T07:34:13.829Z,18.30
2018-06-19T07:36:43.050Z,18.50
2018-06-19T07:39:12.225Z,18.40
2018-06-19T07:41:41.029Z,18.40
2018-06-19T07:44:09.931Z,18.50
2018-06-19T07:46:38.740Z,18.40
2018-06-19T07:49:07.353Z,18.50
2018-06-19T07:51:36.284Z,18.90
2018-06-19T07:54:04.879Z,19.00
2018-06-19T07:56:33.676Z,18.90
2018-06-19T07:59:02.304Z,19.20
2018-06-19T08:01:31.124Z,19.00
2018-06-19T08:03:59.943Z,19.30
2018-06-19T08:06:28.760Z,19.60
2018-06-19T08:11:26.402Z,19.50
2018-06-19T08:13:54.987Z,19.50
2018-06-19T08:16:23.601Z,19.70
2018-06-19T08:18:52.493Z,19.80
2018-06-19T08:21:21.998Z,19.90
2018-06-19T08:23:50.596Z,19.90
2018-06-19T08:26:19.189Z,20.30
2018-06-19T08:28:48.068Z,20.50
2018-06-19T08:31:16.656Z,20.50
2018-06-19T08:33:45.885Z,20.70
2018-06-19T08:36:14.507Z,20.40
2018-06-19T08:38:43.691Z,20.50
2018-06-19T08:41:12.321Z,20.80
2018-06-19T08:43:40.930Z,21.30
2018-06-19T08:46:09.765Z,21.60
2018-06-19T08:48:38.371Z,21.50
2018-06-19T08:51:07.009Z,21.20
2018-06-19T08:53:35.837Z,21.20
2018-06-19T08:56:04.489Z,20.90
2018-06-19T08:58:33.095Z,20.30
2018-06-19T09:01:01.838Z,20.10
2018-06-19T09:03:30.647Z,20.00
2018-06-19T09:05:59.267Z,19.90
2018-06-19T09:08:28.209Z,20.20
2018-06-19T09:10:57.819Z,20.30
2018-06-19T09:13:27.006Z,20.30
2018-06-19T09:15:55.606Z,20.30
2018-06-19T09:18:24.424Z,20.30
2018-06-19T09:20:53.023Z,20.60
2018-06-19T09:23:21.895Z,20.70
2018-06-19T09:25:50.909Z,20.50
2018-06-19T09:28:19.712Z,20.00
2018-06-19T09:30:48.321Z,19.60
2018-06-19T09:33:17.224Z,19.40
2018-06-19T09:35:45.900Z,19.30
2018-06-19T09:38:14.727Z,19.40
2018-06-19T09:40:43.311Z,19.60
2018-06-19T09:43:11.903Z,20.10
2018-06-19T09:45:40.529Z,20.70
2018-06-19T09:48:09.357Z,21.10
2018-06-19T09:50:38.121Z,21.40
2018-06-19T09:53:07.076Z,21.70
2018-06-19T09:55:36.864Z,21.70
2018-06-19T09:58:06.068Z,21.50
2018-06-19T10:00:35.792Z,21.40
2018-06-19T10:03:04.478Z,21.50
2018-06-19T10:05:33.659Z,21.30
2018-06-19T10:08:02.884Z,21.10
2018-06-19T10:10:31.951Z,20.90
2018-06-19T10:13:00.850Z,20.60
2018-06-19T10:15:29.748Z,20.20
2018-06-19T10:17:58.832Z,20.00
2018-06-19T10:20:27.668Z,20.10
2018-06-19T10:22:56.521Z,20.00
2018-06-19T10:25:25.392Z,19.80
2018-06-19T10:27:54.209Z,20.10
2018-06-19T10:30:23.075Z,20.40
2018-06-19T10:32:51.724Z,20.40
2018-06-19T10:35:21.816Z,20.60
2018-06-19T10:37:50.458Z,20.60
2018-06-19T10:40:19.306Z,20.90
2018-06-19T10:42:48.456Z,20.90
2018-06-19T10:45:17.428Z,20.90
2018-06-19T10:47:46.032Z,20.90
2018-06-19T10:50:14.912Z,20.50
2018-06-19T10:52:43.746Z,20.40
2018-06-19T10:55:12.382Z,20.40
2018-06-19T10:57:41.036Z,20.70
2018-06-19T11:00:10.209Z,20.90
2018-06-19T11:02:39.048Z,20.90
2018-06-19T11:05:07.668Z,20.70
2018-06-19T11:07:36.568Z,20.70
2018-06-19T11:10:05.255Z,20.80
2018-06-19T11:12:33.865Z,21.20
2018-06-19T11:17:30.925Z,21.80
2018-06-19T11:19:59.843Z,21.70
2018-06-19T11:22:28.672Z,22.10
2018-06-19T11:24:57.497Z,22.20
2018-06-19T11:27:26.448Z,21.90
2018-06-19T11:29:55.353Z,21.90
2018-06-19T11:32:24.255Z,21.80
2018-06-19T11:34:53.112Z,21.80
2018-06-19T11:37:22.492Z,21.80
2018-06-19T11:39:51.608Z,21.60
2018-06-19T11:42:20.191Z,21.60
2018-06-19T11:44:48.861Z,22.00
2018-06-19T11:47:17.644Z,23.00
2018-06-19T11:49:46.674Z,23.50
2018-06-19T11:52:15.568Z,23.30
2018-06-19T11:54:44.562Z,23.40
2018-06-19T11:57:13.456Z,23.30
2018-06-19T11:59:42.065Z,23.10
2018-06-19T12:02:11.058Z,23.00
2018-06-19T12:04:39.668Z,23.10
2018-06-19T12:07:08.609Z,23.10
2018-06-19T12:09:37.675Z,22.60
2018-06-19T12:12:06.567Z,22.20
2018-06-19T12:14:35.404Z,22.20
2018-06-19T12:17:04.264Z,22.00
2018-06-19T12:19:32.965Z,21.70
2018-06-19T12:22:01.645Z,21.40
2018-06-19T12:24:30.303Z,21.60
2018-06-19T12:26:59.172Z,21.70
2018-06-19T12:29:28.050Z,21.90
2018-06-19T12:31:56.875Z,22.10
2018-06-19T12:34:25.545Z,22.30
2018-06-19T12:36:54.378Z,22.40
2018-06-19T12:39:23.240Z,22.50
2018-06-19T12:41:52.092Z,22.70
2018-06-19T12:44:20.900Z,22.80
2018-06-19T12:46:49.914Z,22.60
2018-06-19T12:49:29.661Z,22.20
2018-06-19T12:52:09.628Z,21.90
2018-06-19T12:54:46.008Z,22.00
2018-06-19T12:57:14.604Z,21.80
2018-06-19T12:59:43.200Z,21.40
2018-06-19T13:02:12.009Z,21.30
2018-06-19T13:04:51.736Z,21.30
2018-06-19T13:07:20.356Z,21.10
2018-06-19T13:12:28.847Z,21.00
2018-06-19T13:14:57.464Z,20.70
2018-06-19T13:20:11.257Z,20.50
2018-06-19T13:22:39.830Z,20.60
2018-06-19T13:25:08.964Z,20.40
2018-06-19T13:27:37.799Z,20.40
2018-06-19T13:30:17.693Z,20.50
2018-06-19T13:32:46.535Z,20.50
2018-06-19T13:35:15.136Z,20.60
2018-06-19T13:37:44.205Z,20.70
2018-06-19T13:41:24.821Z,20.70
2018-06-19T13:44:07.103Z,20.80
2018-06-19T13:46:35.690Z,21.00
2018-06-19T13:49:04.605Z,21.30
2018-06-19T13:51:34.030Z,21.60
2018-06-19T13:54:03.319Z,21.60
2018-06-19T13:57:41.996Z,21.80
2018-06-19T14:00:16.080Z,22.20
2018-06-19T14:02:44.916Z,22.40
2018-06-19T14:05:15.204Z,22.50
2018-06-19T14:08:25.245Z,22.40
2018-06-19T14:11:05.376Z,22.20
2018-06-19T14:13:33.980Z,22.60
2018-06-19T14:16:02.806Z,22.10
2018-06-19T14:18:31.400Z,21.90
2018-06-19T14:21:00.066Z,21.80
2018-06-19T14:23:28.969Z,21.60
2018-06-19T14:25:57.821Z,21.60
2018-06-19T14:28:26.636Z,21.60
2018-06-19T14:30:55.511Z,21.50
2018-06-19T14:33:24.393Z,21.40
2018-06-19T14:35:53.240Z,21.40
2018-06-19T14:40:50.564Z,21.50
2018-06-19T14:43:19.156Z,21.50
2018-06-19T14:45:47.800Z,21.60
2018-06-19T14:48:16.641Z,21.60
2018-06-19T14:50:45.795Z,21.70
2018-06-19T14:53:14.433Z,21.60
2018-06-19T14:55:43.298Z,21.80
2018-06-19T14:58:12.192Z,22.20
2018-06-19T15:00:40.928Z,22.50
2018-06-19T15:03:09.796Z,23.00
2018-06-19T15:05:38.408Z,23.10
2018-06-19T15:08:06.999Z,23.10
2018-06-19T15:10:35.607Z,23.40
2018-06-19T15:13:04.261Z,23.40
2018-06-19T15:15:33.123Z,23.30
2018-06-19T15:18:01.713Z,23.70
2018-06-19T15:20:30.318Z,23.60
2018-06-19T15:22:59.155Z,23.30
2018-06-19T15:25:28.047Z,23.20
2018-06-19T15:27:56.735Z,23.20
2018-06-19T15:30:25.352Z,23.20
2018-06-19T15:32:54.004Z,23.20
2018-06-19T15:35:22.691Z,23.00
2018-06-19T15:37:51.516Z,22.80
2018-06-19T15:40:20.472Z,23.10
2018-06-19T15:42:49.076Z,23.00
2018-06-19T15:45:17.696Z,23.20
2018-06-19T15:47:46.277Z,23.20
2018-06-19T15:50:15.083Z,23.30
2018-06-19T15:52:43.701Z,23.30
2018-06-19T15:55:12.296Z,23.40
2018-06-19T15:57:40.911Z,23.10
2018-06-19T16:00:09.776Z,23.10
2018-06-19T16:02:38.609Z,23.10
2018-06-19T16:05:07.229Z,22.90
2018-06-19T16:07:40.850Z,22.90
2018-06-19T16:10:09.519Z,22.70
2018-06-19T16:12:38.126Z,22.70
2018-06-19T16:15:06.763Z,22.70
2018-06-19T16:17:35.505Z,22.90
2018-06-19T16:20:04.626Z,22.90
2018-06-19T16:22:33.254Z,22.90
2018-06-19T16:25:02.279Z,22.90
2018-06-19T16:27:30.885Z,22.70
2018-06-19T16:29:59.502Z,22.60
2018-06-19T16:32:28.363Z,22.60
2018-06-19T16:34:56.981Z,22.80
2018-06-19T16:37:25.607Z,22.60
2018-06-19T16:39:54.460Z,22.80
2018-06-19T16:42:23.304Z,23.00
2018-06-19T16:44:51.908Z,22.90
2018-06-19T16:47:20.787Z,22.80
2018-06-19T16:49:49.421Z,22.70
2018-06-19T16:52:18.283Z,22.80
2018-06-19T16:54:47.180Z,23.00
2018-06-19T16:57:15.760Z,22.50
2018-06-19T16:59:44.611Z,22.20
2018-06-19T17:02:13.232Z,22.10
2018-06-19T17:04:42.071Z,22.00
2018-06-19T17:07:11.120Z,22.00
2018-06-19T17:09:39.716Z,21.90
2018-06-19T17:12:10.071Z,21.80
2018-06-19T17:14:38.776Z,21.90
2018-06-19T17:17:07.589Z,21.90
2018-06-19T17:19:36.491Z,22.00
2018-06-19T17:22:05.228Z,21.90
2018-06-19T17:24:33.885Z,21.90
2018-06-19T17:27:02.474Z,22.00
2018-06-19T17:29:31.339Z,21.90
2018-06-19T17:32:00.271Z,21.90
2018-06-19T17:34:29.164Z,21.80
2018-06-19T17:36:58.299Z,21.80
2018-06-19T17:39:26.976Z,21.70
2018-06-19T17:41:55.807Z,21.70
2018-06-19T17:44:24.413Z,21.70
2018-06-19T17:49:46.457Z,21.80
2018-06-19T17:52:15.424Z,21.80
2018-06-19T17:54:44.031Z,21.70
2018-06-19T17:57:12.633Z,21.60
2018-06-19T17:59:41.256Z,21.70
2018-06-19T18:04:38.181Z,21.50
2018-06-19T18:07:06.771Z,21.50
2018-06-19T18:09:35.841Z,21.50
2018-06-19T18:12:04.812Z,21.50
2018-06-19T18:14:33.412Z,21.40
2018-06-19T18:17:02.069Z,21.40
2018-06-19T18:19:30.712Z,21.50
2018-06-19T18:21:59.460Z,21.40
2018-06-19T18:24:28.125Z,21.40
2018-06-19T18:26:57.496Z,21.30
2018-06-19T18:29:27.842Z,21.30
2018-06-19T18:31:57.613Z,21.20
2018-06-19T18:34:26.955Z,21.20
2018-06-19T18:36:56.388Z,21.10
2018-06-19T18:39:25.847Z,21.10
2018-06-19T18:41:55.524Z,21.00
2018-06-19T18:44:25.159Z,21.00
2018-06-19T18:46:54.550Z,20.90
2018-06-19T18:49:24.111Z,20.90
2018-06-19T18:51:53.816Z,20.90
2018-06-19T18:54:23.004Z,20.80
2018-06-19T18:56:52.388Z,20.70
2018-06-19T18:59:22.521Z,20.70
2018-06-19T19:01:51.973Z,20.60
2018-06-19T19:04:22.105Z,20.50
2018-06-19T19:06:51.536Z,20.40
2018-06-19T19:09:21.881Z,20.40
2018-06-19T19:11:51.774Z,20.30
2018-06-19T19:14:21.234Z,20.30
2018-06-19T19:16:55.571Z,20.20
2018-06-19T19:19:25.607Z,20.20
2018-06-19T19:21:54.914Z,20.10
2018-06-19T19:24:24.440Z,20.00
2018-06-19T19:26:58.597Z,20.00
2018-06-19T19:29:33.248Z,19.90
2018-06-19T19:32:02.328Z,19.90
2018-06-19T19:34:31.343Z,19.80
2018-06-19T19:37:05.586Z,19.80
2018-06-19T19:39:34.620Z,19.70
2018-06-19T19:42:04.340Z,19.70
2018-06-19T19:44:33.963Z,19.70
2018-06-19T19:47:08.029Z,19.60
2018-06-19T19:49:37.411Z,19.50
2018-06-19T19:52:06.720Z,19.50
2018-06-19T19:54:35.982Z,19.50
2018-06-19T19:57:10.630Z,19.40
2018-06-19T19:59:39.790Z,19.30
2018-06-19T20:02:09.479Z,19.30
2018-06-19T20:04:38.864Z,19.30
2018-06-19T20:07:08.689Z,19.30
2018-06-19T20:09:37.955Z,19.20
2018-06-19T20:12:06.812Z,19.20
2018-06-19T20:14:35.676Z,19.10
2018-06-19T20:19:33.175Z,19.00
2018-06-19T20:22:01.985Z,19.00
2018-06-19T20:24:30.628Z,19.00
2018-06-19T20:26:59.468Z,19.00
2018-06-19T20:29:28.765Z,19.00
2018-06-19T20:31:57.951Z,18.90
2018-06-19T20:34:26.547Z,18.90
2018-06-19T20:36:55.196Z,18.90
2018-06-19T20:39:24.420Z,18.80
2018-06-19T20:41:53.087Z,18.80
2018-06-19T20:44:22.201Z,18.80
2018-06-19T20:46:50.861Z,18.80
2018-06-19T20:49:19.864Z,18.80
2018-06-19T20:51:48.560Z,18.80
2018-06-19T20:54:17.403Z,18.80
2018-06-19T20:56:46.292Z,18.80
2018-06-19T20:59:15.020Z,18.70
2018-06-19T21:01:43.864Z,18.70
2018-06-19T21:04:12.476Z,18.70
2018-06-19T21:06:41.402Z,18.70
2018-06-19T21:09:10.008Z,18.70
2018-06-19T21:11:38.819Z,18.60
2018-06-19T21:14:07.420Z,18.60
2018-06-19T21:16:36.676Z,18.50
2018-06-19T21:19:05.652Z,18.60
2018-06-19T21:21:34.548Z,18.60
2018-06-19T21:24:03.636Z,18.60
2018-06-19T21:26:32.585Z,18.50
2018-06-19T21:29:01.468Z,18.50
2018-06-19T21:31:30.299Z,18.60
2018-06-19T21:33:58.903Z,18.50
2018-06-19T21:36:27.792Z,18.50
2018-06-19T21:38:56.486Z,18.50
2018-06-19T21:41:25.739Z,18.50
2018-06-19T21:43:55.043Z,18.40
2018-06-19T21:48:53.255Z,18.40
2018-06-19T21:51:22.147Z,18.40
2018-06-19T21:53:50.991Z,18.40
2018-06-19T21:58:49.305Z,18.30
2018-06-19T22:01:18.087Z,18.30
2018-06-19T22:03:46.696Z,18.30
2018-06-19T22:06:15.315Z,18.30
2018-06-19T22:08:51.346Z,18.20
2018-06-19T22:11:20.355Z,18.20
2018-06-19T22:13:49.242Z,18.20
2018-06-19T22:16:17.877Z,18.10
2018-06-19T22:18:46.517Z,18.10
2018-06-19T22:21:15.344Z,18.00
2018-06-19T22:23:44.224Z,18.10
2018-06-19T22:26:13.162Z,18.10
2018-06-19T22:28:41.785Z,18.10
2018-06-19T22:31:10.656Z,18.10
2018-06-19T22:33:39.610Z,18.10
2018-06-19T22:38:37.452Z,18.10
2018-06-19T22:41:06.504Z,18.10
2018-06-19T22:43:35.853Z,18.10
2018-06-19T22:46:04.509Z,18.10
2018-06-19T22:48:33.143Z,18.10
2018-06-19T22:51:01.771Z,18.10
2018-06-19T22:53:30.642Z,18.00
2018-06-19T22:55:59.245Z,18.00
2018-06-19T22:58:28.168Z,18.00
2018-06-19T23:00:56.799Z,18.10
2018-06-19T23:03:25.631Z,18.00
2018-06-19T23:05:54.489Z,18.00
2018-06-19T23:13:19.904Z,18.00
2018-06-19T23:15:48.549Z,18.00
2018-06-19T23:18:17.643Z,18.00
2018-06-19T23:20:46.487Z,18.00
2018-06-19T23:23:15.765Z,18.00
2018-06-19T23:25:44.382Z,18.00
2018-06-19T23:28:13.906Z,18.00
2018-06-19T23:30:42.727Z,17.90
2018-06-19T23:33:11.324Z,17.90
2018-06-19T23:35:39.971Z,17.90
2018-06-19T23:38:09.169Z,17.80
2018-06-19T23:40:37.761Z,17.80
2018-06-19T23:43:06.597Z,17.80
2018-06-19T23:45:35.312Z,17.80
2018-06-19T23:48:04.268Z,17.80
2018-06-19T23:50:33.157Z,17.80
2018-06-19T23:53:01.936Z,17.90
2018-06-19T23:55:30.825Z,17.80
2018-06-19T23:57:59.874Z,17.70
